createdAt,value
2019-06-20T00:00:53.481Z,90.22
2019-06-20T00:03:25.423Z,90.22
2019-06-20T00:05:57.403Z,90.21
2019-06-20T00:08:29.376Z,90.78
2019-06-20T00:11:01.347Z,90.65
2019-06-20T00:13:33.319Z,90.31
2019-06-20T00:16:05.329Z,90.37
2019-06-20T00:18:37.282Z,90.90
2019-06-20T00:21:09.285Z,91.15
2019-06-20T00:23:41.246Z,91.34
2019-06-20T00:26:13.353Z,91.90
2019-06-20T00:28:45.318Z,92.53
2019-06-20T00:31:17.294Z,92.74
2019-06-20T00:33:49.255Z,92.48
2019-06-20T00:36:21.291Z,92.38
2019-06-20T00:38:53.267Z,91.93
2019-06-20T00:41:25.229Z,92.41
2019-06-20T00:43:57.188Z,92.87
2019-06-20T00:46:29.203Z,92.99
2019-06-20T00:49:01.187Z,92.60
2019-06-20T00:52:04.697Z,92.56
2019-06-20T00:54:36.678Z,92.59
2019-06-20T00:57:08.662Z,92.97
2019-06-20T00:59:40.628Z,93.24
2019-06-20T01:02:12.584Z,93.45
2019-06-20T01:04:44.527Z,93.68
2019-06-20T01:07:16.511Z,93.71
2019-06-20T01:09:48.480Z,94.09
2019-06-20T01:12:20.619Z,94.12
2019-06-20T01:14:52.554Z,93.97
2019-06-20T01:17:24.549Z,94.00
2019-06-20T01:19:58.316Z,93.88
2019-06-20T01:22:30.385Z,93.88
2019-06-20T01:25:02.333Z,93.92
2019-06-20T01:27:34.700Z,94.10
2019-06-20T01:30:07.200Z,94.22
2019-06-20T01:32:39.175Z,94.23
2019-06-20T01:35:11.335Z,94.26
2019-06-20T01:37:43.327Z,94.15
2019-06-20T01:40:15.291Z,94.20
2019-06-20T01:42:47.254Z,94.05
2019-06-20T01:45:19.198Z,94.08
2019-06-20T01:47:51.160Z,94.34
2019-06-20T01:50:23.112Z,94.44
2019-06-20T01:52:55.078Z,94.33
2019-06-20T01:55:27.033Z,94.21
2019-06-20T01:57:58.984Z,94.23
2019-06-20T02:00:42.993Z,94.10
2019-06-20T02:03:15.548Z,93.27
2019-06-20T02:05:47.790Z,92.79
2019-06-20T02:08:19.780Z,92.66
2019-06-20T02:10:51.745Z,92.89
2019-06-20T02:13:23.710Z,93.17
2019-06-20T02:15:55.696Z,93.48
2019-06-20T02:18:27.682Z,93.29
2019-06-20T02:20:59.632Z,93.60
2019-06-20T02:23:31.607Z,93.59
2019-06-20T02:26:03.612Z,93.17
2019-06-20T02:28:35.636Z,93.71
2019-06-20T02:31:07.626Z,93.85
2019-06-20T02:33:39.590Z,93.97
2019-06-20T02:36:11.565Z,94.01
2019-06-20T02:38:43.509Z,93.85
2019-06-20T02:41:15.469Z,93.71
2019-06-20T02:43:47.456Z,93.29
2019-06-20T02:46:19.442Z,93.43
2019-06-20T02:48:51.419Z,93.66
2019-06-20T02:51:24.806Z,93.54
2019-06-20T02:53:56.773Z,93.79
2019-06-20T02:56:28.747Z,93.94
2019-06-20T02:59:00.745Z,92.96
2019-06-20T03:01:32.690Z,91.90
2019-06-20T03:04:04.671Z,91.61
2019-06-20T03:06:36.636Z,91.28
2019-06-20T03:09:08.561Z,92.46
2019-06-20T03:11:40.514Z,91.75
2019-06-20T03:14:12.588Z,92.60
2019-06-20T03:16:44.570Z,92.70
2019-06-20T03:19:16.543Z,93.53
2019-06-20T03:21:48.514Z,93.19
2019-06-20T03:24:20.453Z,92.35
2019-06-20T03:26:52.426Z,92.47
2019-06-20T03:29:24.358Z,92.94
2019-06-20T03:31:56.338Z,93.50
2019-06-20T03:34:28.236Z,94.06
2019-06-20T03:37:00.193Z,94.53
2019-06-20T03:39:32.121Z,94.31
2019-06-20T03:42:04.099Z,94.28
2019-06-20T03:44:36.045Z,94.46
2019-06-20T03:47:08.028Z,94.43
2019-06-20T03:49:39.957Z,94.73
2019-06-20T03:52:11.934Z,94.68
2019-06-20T03:54:43.977Z,94.72
2019-06-20T03:57:15.988Z,94.73
2019-06-20T03:59:47.921Z,94.47
2019-06-20T04:02:19.886Z,94.66
2019-06-20T04:04:51.861Z,94.67
2019-06-20T04:07:23.863Z,94.51
2019-06-20T04:09:55.854Z,94.70
2019-06-20T04:12:27.800Z,94.67
2019-06-20T04:14:59.780Z,94.82
2019-06-20T04:17:31.767Z,94.56
2019-06-20T04:20:04.025Z,94.67
2019-06-20T04:22:36.018Z,94.57
2019-06-20T04:25:07.986Z,94.20
2019-06-20T04:27:39.934Z,93.98
2019-06-20T04:30:11.897Z,94.26
2019-06-20T04:32:44.121Z,94.28
2019-06-20T04:35:16.085Z,94.20
2019-06-20T04:37:48.204Z,93.91
2019-06-20T04:40:20.217Z,92.62
2019-06-20T04:42:52.229Z,92.02
2019-06-20T04:45:35.049Z,92.75
2019-06-20T04:48:05.048Z,92.50
2019-06-20T04:50:37.144Z,92.73
2019-06-20T04:53:09.109Z,93.06
2019-06-20T04:55:41.074Z,93.37
2019-06-20T04:58:13.044Z,93.19
2019-06-20T05:00:44.989Z,93.85
2019-06-20T05:03:16.990Z,94.03
2019-06-20T05:05:48.908Z,93.84
2019-06-20T05:08:20.873Z,93.53
2019-06-20T05:10:52.831Z,93.70
2019-06-20T05:13:24.935Z,93.57
2019-06-20T05:15:56.906Z,94.19
2019-06-20T05:18:28.918Z,94.48
2019-06-20T05:21:00.865Z,93.79
2019-06-20T05:23:32.839Z,93.68
2019-06-20T05:26:04.826Z,93.16
2019-06-20T05:28:36.746Z,93.99
2019-06-20T05:31:08.716Z,94.29
2019-06-20T05:33:40.669Z,93.30
2019-06-20T05:36:12.616Z,92.61
2019-06-20T05:38:44.581Z,93.11
2019-06-20T05:41:16.563Z,93.38
2019-06-20T05:43:48.519Z,93.48
2019-06-20T05:46:20.487Z,93.84
2019-06-20T05:48:52.462Z,94.35
2019-06-20T05:51:24.443Z,94.49
2019-06-20T05:53:56.832Z,94.61
2019-06-20T05:56:28.829Z,94.90
2019-06-20T05:59:00.746Z,94.33
2019-06-20T06:01:32.723Z,94.42
2019-06-20T06:04:04.795Z,94.65
2019-06-20T06:06:36.808Z,95.02
2019-06-20T06:09:17.338Z,95.06
2019-06-20T06:11:49.354Z,95.06
2019-06-20T06:14:21.309Z,95.20
2019-06-20T06:16:53.325Z,95.27
2019-06-20T06:19:32.058Z,93.14
2019-06-20T06:22:04.054Z,93.25
2019-06-20T06:24:36.026Z,92.74
2019-06-20T06:27:08.011Z,92.12
2019-06-20T06:29:39.983Z,90.60
2019-06-20T06:32:11.948Z,90.65
2019-06-20T06:34:43.930Z,90.80
2019-06-20T06:37:15.907Z,84.99
2019-06-20T06:39:47.837Z,83.12
2019-06-20T06:42:20.084Z,80.78
2019-06-20T06:44:52.036Z,79.74
2019-06-20T06:47:24.077Z,80.03
2019-06-20T06:49:56.076Z,79.35
2019-06-20T06:52:28.222Z,77.45
2019-06-20T06:55:00.326Z,80.36
2019-06-20T06:57:32.292Z,79.49
2019-06-20T07:00:06.904Z,81.00
2019-06-20T07:02:38.897Z,75.56
2019-06-20T07:05:11.442Z,76.81
2019-06-20T07:07:43.405Z,75.90
2019-06-20T07:10:15.678Z,72.42
2019-06-20T07:12:47.639Z,71.74
2019-06-20T07:15:20.397Z,73.04
2019-06-20T07:17:52.407Z,66.69
2019-06-20T07:20:24.386Z,67.02
2019-06-20T07:22:56.412Z,67.90
2019-06-20T07:25:28.412Z,66.12
2019-06-20T07:28:00.402Z,66.15
2019-06-20T07:30:32.463Z,63.99
2019-06-20T07:33:04.493Z,63.87
2019-06-20T07:35:36.611Z,65.00
2019-06-20T07:38:08.574Z,64.98
2019-06-20T07:40:40.563Z,64.90
2019-06-20T07:43:12.546Z,63.22
2019-06-20T07:45:58.474Z,62.48
2019-06-20T07:48:18.469Z,63.77
2019-06-20T07:50:50.432Z,65.63
2019-06-20T07:53:22.434Z,63.91
2019-06-20T07:55:54.437Z,63.05
2019-06-20T07:58:26.403Z,62.84
2019-06-20T08:00:58.373Z,62.70
2019-06-20T08:03:30.367Z,60.94
2019-06-20T08:06:02.380Z,60.94
2019-06-20T08:08:36.932Z,60.94
2019-06-20T08:11:08.929Z,63.02
2019-06-20T08:13:42.651Z,61.08
2019-06-20T08:16:14.725Z,60.91
2019-06-20T08:18:46.714Z,60.60
2019-06-20T08:21:18.699Z,59.96
2019-06-20T08:23:50.692Z,60.86
2019-06-20T08:26:22.675Z,58.51
2019-06-20T08:29:10.508Z,59.87
2019-06-20T08:31:28.586Z,59.77
2019-06-20T08:34:00.568Z,58.37
2019-06-20T08:36:32.555Z,59.45
2019-06-20T08:39:07.758Z,58.89
2019-06-20T08:41:39.765Z,59.75
2019-06-20T08:44:11.729Z,59.50
2019-06-20T08:46:43.700Z,58.39
2019-06-20T08:49:15.778Z,57.64
2019-06-20T08:51:47.791Z,56.16
2019-06-20T08:54:19.765Z,55.19
2019-06-20T08:56:51.755Z,55.22
2019-06-20T08:59:24.879Z,56.90
2019-06-20T09:01:58.791Z,55.24
2019-06-20T09:04:30.955Z,55.09
2019-06-20T09:09:36.072Z,53.64
2019-06-20T09:12:08.043Z,51.93
2019-06-20T09:14:40.056Z,52.25
2019-06-20T09:17:12.110Z,50.07
2019-06-20T09:19:44.072Z,50.17
2019-06-20T09:22:16.076Z,53.50
2019-06-20T09:24:48.084Z,52.19
2019-06-20T09:27:20.153Z,52.67
2019-06-20T09:29:53.260Z,53.29
2019-06-20T09:32:26.059Z,52.97
2019-06-20T09:34:58.690Z,53.21
2019-06-20T09:37:30.802Z,51.71
2019-06-20T09:40:03.763Z,52.10
2019-06-20T09:42:36.923Z,51.24
2019-06-20T09:45:09.273Z,50.17
2019-06-20T09:47:41.619Z,50.57
2019-06-20T09:50:14.244Z,51.33
2019-06-20T09:52:49.787Z,51.33
2019-06-20T09:55:20.195Z,49.87
2019-06-20T09:57:53.622Z,51.16
2019-06-20T10:00:26.380Z,51.47
2019-06-20T10:02:58.476Z,51.47
2019-06-20T10:05:30.510Z,52.65
2019-06-20T10:08:02.585Z,52.14
2019-06-20T10:10:35.177Z,53.30
2019-06-20T10:13:07.217Z,53.90
2019-06-20T10:15:41.053Z,53.73
2019-06-20T10:18:13.051Z,50.55
2019-06-20T10:20:46.096Z,50.50
2019-06-20T10:23:19.093Z,50.80
2019-06-20T10:25:51.509Z,51.50
2019-06-20T10:28:23.698Z,51.72
2019-06-20T10:30:55.958Z,51.48
2019-06-20T10:33:29.536Z,50.68
2019-06-20T10:36:01.543Z,50.68
2019-06-20T10:38:33.550Z,49.10
2019-06-20T10:41:05.536Z,48.95
2019-06-20T10:43:37.558Z,48.27
2019-06-20T10:46:09.593Z,48.87
2019-06-20T10:48:42.620Z,48.17
2019-06-20T10:51:50.269Z,49.30
2019-06-20T10:54:22.343Z,49.37
2019-06-20T10:56:54.362Z,48.42
2019-06-20T10:59:26.350Z,47.05
2019-06-20T11:01:58.356Z,47.05
2019-06-20T11:04:30.315Z,47.32
2019-06-20T11:07:02.327Z,46.93
2019-06-20T11:09:34.336Z,47.52
2019-06-20T11:12:06.344Z,47.71
2019-06-20T11:14:39.146Z,48.05
2019-06-20T11:17:12.300Z,46.64
2019-06-20T11:19:45.753Z,45.17
2019-06-20T11:22:17.980Z,47.03
2019-06-20T11:24:49.995Z,47.03
2019-06-20T11:27:22.015Z,46.44
2019-06-20T11:29:54.001Z,45.27
2019-06-20T11:32:26.068Z,45.85
2019-06-20T11:34:58.079Z,48.23
2019-06-20T11:37:30.122Z,47.59
2019-06-20T11:40:02.233Z,47.98
2019-06-20T11:42:34.698Z,45.52
2019-06-20T11:45:08.405Z,46.50
2019-06-20T11:47:40.560Z,45.37
2019-06-20T11:50:13.731Z,45.37
2019-06-20T11:52:46.016Z,45.36
2019-06-20T11:55:19.952Z,45.66
2019-06-20T11:57:51.997Z,45.87
2019-06-20T12:00:24.191Z,46.12
2019-06-20T12:02:56.201Z,45.65
2019-06-20T12:05:28.240Z,45.85
2019-06-20T12:08:00.316Z,45.42
2019-06-20T12:10:32.339Z,45.42
2019-06-20T12:13:04.320Z,45.90
2019-06-20T12:15:36.318Z,47.06
2019-06-20T12:18:08.364Z,50.61
2019-06-20T12:20:41.132Z,42.97
2019-06-20T12:23:13.604Z,42.97
2019-06-20T12:25:46.557Z,44.80
2019-06-20T12:28:20.303Z,45.33
2019-06-20T12:30:52.356Z,47.02
2019-06-20T12:33:24.344Z,46.74
2019-06-20T12:35:56.370Z,45.31
2019-06-20T12:38:28.373Z,46.45
2019-06-20T12:41:00.411Z,46.86
2019-06-20T12:43:32.419Z,48.23
2019-06-20T12:46:04.486Z,48.01
2019-06-20T12:48:36.523Z,48.67
2019-06-20T12:51:08.535Z,49.79
2019-06-20T12:53:41.893Z,48.20
2019-06-20T12:56:14.069Z,49.33
2019-06-20T12:58:46.678Z,51.50
2019-06-20T13:01:34.257Z,51.76
2019-06-20T13:03:52.884Z,52.31
2019-06-20T13:06:25.044Z,53.21
2019-06-20T13:08:57.094Z,59.75
2019-06-20T13:11:29.112Z,65.22
2019-06-20T13:14:01.145Z,67.61
2019-06-20T13:16:34.048Z,69.63
2019-06-20T13:19:06.011Z,72.71
2019-06-20T13:21:39.281Z,74.82
2019-06-20T13:24:11.963Z,75.21
2019-06-20T13:26:44.063Z,72.96
2019-06-20T13:29:16.035Z,72.24
2019-06-20T13:32:01.885Z,75.16
2019-06-20T13:34:21.930Z,74.25
2019-06-20T13:36:53.968Z,72.89
2019-06-20T13:39:25.948Z,71.67
2019-06-20T13:41:57.971Z,72.89
2019-06-20T13:44:29.995Z,74.79
2019-06-20T13:47:02.024Z,74.47
2019-06-20T13:49:33.982Z,72.88
2019-06-20T13:52:06.020Z,71.84
2019-06-20T13:54:39.660Z,73.25
2019-06-20T13:57:11.944Z,70.35
2019-06-20T13:59:43.933Z,67.43
2019-06-20T14:02:15.965Z,66.54
2019-06-20T14:04:48.353Z,67.15
2019-06-20T14:07:20.399Z,66.85
2019-06-20T14:09:52.398Z,67.91
2019-06-20T14:12:24.406Z,68.63
2019-06-20T14:14:56.429Z,70.36
2019-06-20T14:17:28.489Z,70.40
2019-06-20T14:20:00.517Z,65.03
2019-06-20T14:22:32.577Z,66.64
2019-06-20T14:25:04.832Z,66.27
2019-06-20T14:27:36.852Z,67.19
2019-06-20T14:30:09.273Z,67.72
2019-06-20T14:32:41.504Z,66.85
2019-06-20T14:35:16.378Z,65.07
2019-06-20T14:37:49.624Z,65.96
2019-06-20T14:40:22.464Z,67.99
2019-06-20T14:42:54.523Z,67.50
2019-06-20T14:45:26.510Z,67.63
2019-06-20T14:47:58.460Z,68.63
2019-06-20T14:50:30.490Z,66.70
2019-06-20T14:53:02.463Z,65.47
2019-06-20T14:55:34.488Z,67.00
2019-06-20T14:58:06.565Z,67.92
2019-06-20T15:00:38.680Z,68.61
2019-06-20T15:03:10.694Z,67.99
2019-06-20T15:05:44.768Z,67.45
2019-06-20T15:08:16.662Z,67.80
2019-06-20T15:10:50.122Z,65.52
2019-06-20T15:13:22.275Z,66.01
2019-06-20T15:15:55.385Z,61.43
2019-06-20T15:18:27.572Z,61.42
2019-06-20T15:20:59.635Z,59.70
2019-06-20T15:23:31.593Z,57.01
2019-06-20T15:26:03.669Z,55.58
2019-06-20T15:28:35.670Z,54.41
2019-06-20T15:31:07.677Z,56.07
2019-06-20T15:33:39.655Z,56.22
2019-06-20T15:36:11.680Z,57.85
2019-06-20T15:38:43.668Z,57.69
2019-06-20T15:41:15.755Z,57.70
2019-06-20T15:43:48.587Z,56.56
2019-06-20T15:46:21.695Z,57.99
2019-06-20T15:48:53.696Z,58.88
2019-06-20T15:51:25.735Z,60.46
2019-06-20T15:53:57.746Z,59.25
2019-06-20T15:56:29.816Z,57.75
2019-06-20T15:59:01.803Z,56.97
2019-06-20T16:01:33.814Z,58.10
2019-06-20T16:04:05.831Z,58.94
2019-06-20T16:06:37.822Z,58.74
2019-06-20T16:09:09.812Z,58.82
2019-06-20T16:11:41.807Z,58.76
2019-06-20T16:14:13.797Z,59.18
2019-06-20T16:16:45.822Z,59.56
2019-06-20T16:19:17.885Z,59.41
2019-06-20T16:21:49.890Z,59.17
2019-06-20T16:24:21.993Z,59.43
2019-06-20T16:26:54.299Z,59.39
2019-06-20T16:29:26.295Z,58.33
2019-06-20T16:31:58.299Z,58.82
2019-06-20T16:34:30.297Z,59.35
2019-06-20T16:37:09.982Z,58.45
2019-06-20T16:39:36.276Z,56.97
2019-06-20T16:42:08.307Z,57.22
2019-06-20T16:44:40.332Z,57.74
2019-06-20T16:47:12.380Z,57.61
2019-06-20T16:49:44.376Z,57.65
2019-06-20T16:52:16.399Z,60.01
2019-06-20T16:54:48.365Z,59.23
2019-06-20T16:57:20.422Z,59.90
2019-06-20T16:59:52.464Z,59.26
2019-06-20T17:02:24.474Z,58.49
2019-06-20T17:04:56.778Z,57.63
2019-06-20T17:07:28.807Z,57.82
2019-06-20T17:10:00.879Z,57.68
2019-06-20T17:12:32.884Z,57.31
2019-06-20T17:15:05.323Z,57.32
2019-06-20T17:17:37.437Z,57.90
2019-06-20T17:20:09.719Z,57.80
2019-06-20T17:22:41.850Z,57.70
2019-06-20T17:25:14.386Z,58.71
2019-06-20T17:27:46.415Z,59.93
2019-06-20T17:30:19.240Z,61.00
2019-06-20T17:32:51.298Z,62.01
2019-06-20T17:35:23.324Z,64.34
2019-06-20T17:37:55.364Z,68.77
2019-06-20T17:40:27.604Z,72.28
2019-06-20T17:42:59.644Z,74.29
2019-06-20T17:45:31.710Z,77.09
2019-06-20T17:48:03.894Z,77.03
2019-06-20T17:50:35.980Z,76.43
2019-06-20T17:53:07.995Z,74.61
2019-06-20T17:55:40.055Z,74.63
2019-06-20T17:58:12.092Z,75.22
2019-06-20T18:00:44.160Z,76.14
2019-06-20T18:03:16.183Z,76.14
2019-06-20T18:05:48.240Z,77.55
2019-06-20T18:08:20.266Z,80.43
2019-06-20T18:10:52.329Z,81.02
2019-06-20T18:13:24.275Z,82.60
2019-06-20T18:15:56.366Z,84.38
2019-06-20T18:18:28.364Z,83.33
2019-06-20T18:21:00.373Z,82.44
2019-06-20T18:23:37.651Z,83.52
2019-06-20T18:26:09.811Z,83.21
2019-06-20T18:28:41.797Z,82.51
2019-06-20T18:31:13.939Z,82.62
2019-06-20T18:33:45.906Z,82.96
2019-06-20T18:36:17.964Z,83.13
2019-06-20T18:38:50.001Z,83.98
2019-06-20T18:41:22.066Z,83.29
2019-06-20T18:43:54.088Z,83.82
2019-06-20T18:46:26.157Z,83.26
2019-06-20T18:48:58.203Z,83.55
2019-06-20T18:51:30.252Z,84.13
2019-06-20T18:54:02.281Z,83.98
2019-06-20T18:56:34.332Z,84.21
2019-06-20T18:59:06.400Z,84.58
2019-06-20T19:01:38.509Z,84.24
2019-06-20T19:04:10.522Z,84.64
2019-06-20T19:06:42.603Z,84.56
2019-06-20T19:09:14.644Z,83.96
2019-06-20T19:11:46.749Z,84.46
2019-06-20T19:14:18.768Z,84.27
2019-06-20T19:16:50.927Z,84.18
2019-06-20T19:19:22.937Z,84.08
2019-06-20T19:21:54.961Z,84.56
2019-06-20T19:24:27.027Z,84.20
2019-06-20T19:26:59.064Z,84.63
2019-06-20T19:29:31.126Z,84.98
2019-06-20T19:32:03.148Z,84.27
2019-06-20T19:34:35.206Z,84.47
2019-06-20T19:37:07.261Z,84.72
2019-06-20T19:39:39.283Z,84.35
2019-06-20T19:42:11.263Z,84.23
2019-06-20T19:44:43.321Z,84.44
2019-06-20T19:47:15.352Z,85.36
2019-06-20T19:49:47.453Z,85.50
2019-06-20T19:52:19.467Z,85.59
2019-06-20T19:54:51.516Z,85.63
2019-06-20T19:57:23.561Z,84.94
2019-06-20T19:59:55.594Z,85.06
2019-06-20T20:02:27.671Z,85.40
2019-06-20T20:04:59.724Z,85.44
2019-06-20T20:07:31.795Z,84.93
2019-06-20T20:10:04.676Z,85.42
2019-06-20T20:12:36.727Z,85.57
2019-06-20T20:15:08.805Z,85.02
2019-06-20T20:17:40.833Z,85.13
2019-06-20T20:20:13.102Z,85.61
2019-06-20T20:22:45.093Z,85.66
2019-06-20T20:25:17.158Z,85.48
2019-06-20T20:27:49.221Z,85.37
2019-06-20T20:30:21.671Z,85.49
2019-06-20T20:32:56.969Z,85.82
2019-06-20T20:35:35.371Z,85.95
2019-06-20T20:38:03.201Z,85.96
2019-06-20T20:40:35.330Z,85.87
2019-06-20T20:43:07.368Z,85.01
2019-06-20T20:45:39.829Z,85.76
2019-06-20T20:48:11.939Z,86.02
2019-06-20T20:50:44.063Z,85.33
2019-06-20T20:53:16.766Z,84.68
2019-06-20T20:55:53.377Z,84.75
2019-06-20T20:58:26.474Z,84.79
2019-06-20T21:01:09.240Z,84.26
2019-06-20T21:03:41.278Z,84.38
2019-06-20T21:06:13.332Z,84.68
2019-06-20T21:08:45.372Z,85.21
2019-06-20T21:11:17.414Z,84.86
2019-06-20T21:13:49.453Z,84.54
2019-06-20T21:16:21.539Z,84.36
2019-06-20T21:18:53.546Z,85.09
2019-06-20T21:21:25.549Z,85.30
2019-06-20T21:23:57.652Z,85.64
2019-06-20T21:26:29.700Z,86.45
2019-06-20T21:29:01.687Z,86.96
2019-06-20T21:31:33.744Z,87.30
2019-06-20T21:34:05.756Z,87.85
2019-06-20T21:36:37.835Z,87.68
2019-06-20T21:39:09.887Z,88.09
2019-06-20T21:41:41.914Z,88.70
2019-06-20T21:44:13.937Z,88.46
2019-06-20T21:46:46.011Z,85.93
2019-06-20T21:49:17.988Z,86.76
2019-06-20T21:51:50.036Z,86.87
2019-06-20T21:54:22.040Z,86.34
2019-06-20T21:56:54.100Z,87.24
2019-06-20T21:59:26.138Z,86.71
2019-06-20T22:01:58.164Z,87.60
2019-06-20T22:04:30.370Z,86.47
2019-06-20T22:07:02.434Z,87.15
2019-06-20T22:09:34.991Z,87.69
2019-06-20T22:12:06.976Z,88.57
2019-06-20T22:14:38.958Z,88.52
2019-06-20T22:17:10.936Z,88.45
2019-06-20T22:19:42.952Z,88.62
2019-06-20T22:22:14.935Z,89.52
2019-06-20T22:24:46.939Z,89.91
2019-06-20T22:27:18.954Z,90.10
2019-06-20T22:29:50.981Z,90.87
2019-06-20T22:32:22.972Z,90.48
2019-06-20T22:34:54.996Z,90.96
2019-06-20T22:37:26.963Z,91.41
2019-06-20T22:39:58.966Z,91.72
2019-06-20T22:42:30.972Z,91.69
2019-06-20T22:45:06.726Z,91.65
2019-06-20T22:47:37.229Z,91.55
2019-06-20T22:50:09.562Z,91.42
2019-06-20T22:52:41.524Z,91.54
2019-06-20T22:55:13.782Z,91.48
2019-06-20T22:57:45.767Z,91.33
2019-06-20T23:00:17.778Z,91.26
2019-06-20T23:02:49.768Z,91.08
2019-06-20T23:05:21.744Z,91.28
2019-06-20T23:07:53.710Z,91.52
2019-06-20T23:10:25.701Z,91.38
2019-06-20T23:12:57.665Z,91.16
2019-06-20T23:15:29.645Z,90.82
2019-06-20T23:18:01.632Z,90.66
2019-06-20T23:20:33.676Z,90.49
2019-06-20T23:23:05.647Z,90.46
2019-06-20T23:25:39.885Z,90.66
2019-06-20T23:28:11.820Z,90.98
2019-06-20T23:30:43.821Z,91.21
2019-06-20T23:33:15.781Z,91.14
2019-06-20T23:35:47.763Z,90.88
2019-06-20T23:38:19.701Z,91.10
2019-06-20T23:40:51.704Z,90.98
2019-06-20T23:43:23.687Z,91.09
2019-06-20T23:45:55.678Z,91.14
2019-06-20T23:48:27.635Z,91.18
2019-06-20T23:50:59.609Z,90.54
2019-06-20T23:53:31.539Z,90.38
2019-06-20T23:56:07.135Z,90.59
2019-06-20T23:58:37.438Z,91.04
